• Join FlightAware (Why Join?)
  • Login
  • US Flag 
08:58AM EST


 

Airport Tracker/Info


-or-


 

Live Flight TrackerFlight Track Log ✈ LOF3416 ✈ 07-Jul-2013 ✈ KSGF - KORD

Flight Track Log - Related Links

Times and Time Zones

All times are in EDT time to prevent confusion due to time zone crossing. See the LOF3416 flight status page for this flight to view local times or setup timezone preferences in your user account.

Time Position Orientation Groundspeed Altitude Reporting Facility
EDT Latitude Longitude Course Direction KTS MPH feet Rate Location/Type
07:45PM 37.2967 -93.1386 41° Northeast 267 307 6,400  Level Kansas City Center
07:46PM 37.3656 -93.0828 33° Northeast 283 326 8,700 2,220 Climbing Kansas City Center
07:47PM 37.4333 -93.0261 34° Northeast 289 333 11,000 1,980 Climbing Kansas City Center
07:48PM 37.7232 -92.9436 38° Northeast  Level FlightAware Approximate
07:48PM 37.5161 -92.9567 34° Northeast 293 337 12,800  Level Kansas City Center
07:49PM 37.8020 -92.8647 38° Northeast  Level FlightAware Approximate
07:49PM 37.5881 -92.8969 33° Northeast 301 346 14,300  Level Kansas City Center
07:50PM 37.6633 -92.8367 32° Northeast 314 361 15,800 1,320 Climbing Kansas City Center
07:51PM 37.7386 -92.7725 34° Northeast 322 371 17,100 1,140 Climbing Kansas City Center
07:52PM 37.8125 -92.7114 33° Northeast 330 380 18,200 1,140 Climbing Kansas City Center
07:53PM 37.9006 -92.6719 19° North 335 386 19,500 1,260 Climbing Kansas City Center
07:54PM 37.9897 -92.6319 19° North 339 390 20,800 1,200 Climbing Kansas City Center
07:55PM 38.0814 -92.5903 20° North 346 398 22,100 1,320 Climbing Kansas City Center
07:56PM 38.1881 -92.5297 24° Northeast 354 407 23,600 1,260 Climbing Kansas City Center
07:57PM 38.2617 -92.4625 36° Northeast 356 410 24,700 1,140 Climbing Kansas City Center
07:58PM 38.3425 -92.3872 36° Northeast 357 411 26,000 1,080 Climbing Kansas City Center
07:59PM 38.4375 -92.2967 37° Northeast 354 407 27,000 480 Climbing Kansas City Center
08:00PM 38.5256 -92.2144 36° Northeast 380 437 27,000  Level Kansas City Center
08:01PM 38.6181 -92.1267 37° Northeast 404 465 27,000  Level Kansas City Center
08:02PM 38.7150 -92.0358 36° Northeast 422 486 27,000  Level Kansas City Center
08:03PM 38.8133 -91.9428 36° Northeast 434 499 27,000  Level Kansas City Center
08:04PM 38.9131 -91.8475 37° Northeast 441 507 27,000  Level Kansas City Center
08:05PM 39.0136 -91.7528 36° Northeast 447 514 27,000  Level Kansas City Center
08:06PM 39.1186 -91.6525 37° Northeast 444 511 27,000  Level Kansas City Center
08:07PM 39.2158 -91.5597 36° Northeast 438 504 27,000  Level Kansas City Center
08:08PM 39.3156 -91.4631 37° Northeast 442 509 27,000  Level Kansas City Center
08:09PM 39.4139 -91.3681 37° Northeast 443 510 27,000  Level Kansas City Center
08:10PM 39.5119 -91.2725 37° Northeast 442 509 27,000  Level Kansas City Center
08:12PM 39.6294 -91.1581 37° Northeast 440 506 27,000  Level Kansas City Center
08:13PM 39.7272 -91.0619 37° Northeast 439 505 27,000  Level Kansas City Center
08:14PM 39.8269 -90.9625 37° Northeast 437 503 27,000  Level Kansas City Center
08:15PM 39.9231 -90.8653 38° Northeast 436 502 27,000  Level Kansas City Center
08:17PM 40.1022 -90.6836 38° Northeast 435 501 27,000  Level Chicago Center
08:18PM 40.2089 -90.5753 38° Northeast 431 496 27,000  Level Chicago Center
08:19PM 40.3039 -90.4778 38° Northeast 432 497 27,000  Level Chicago Center
08:20PM 40.3994 -90.3819 37° Northeast 431 496 27,000  Level Chicago Center
08:21PM 40.4944 -90.2828 38° Northeast 433 498 27,000  Level Chicago Center
08:22PM 40.5936 -90.1806 38° Northeast 438 504 27,000  Level Chicago Center
08:23PM 40.6878 -90.0814 39° Northeast 437 503 27,000  Level Chicago Center
08:24PM 40.8050 -89.9636 37° Northeast 442 509 27,000 -60 Level Chicago Center
08:25PM 40.8994 -89.8633 39° Northeast 437 503 26,900 -540 Descending Chicago Center
08:26PM 40.9769 -89.7356 51° Northeast 445 512 26,000 -1,020 Descending Chicago Center
08:27PM 41.0531 -89.5906 55° Northeast 443 510 24,900 -1,380 Descending Chicago Center
08:28PM 41.1219 -89.4625 54° Northeast 426 490 23,200 -1,800 Descending Chicago Center
08:29PM 41.1878 -89.3358 55° Northeast 416 479 21,200 -1,980 Descending Chicago Center
08:30PM 41.2517 -89.2133 55° Northeast 406 467 19,200 -2,040 Descending Chicago Center
08:31PM 41.3186 -89.0833 56° Northeast 391 450 17,000 -2,040 Descending Chicago Center
08:32PM 41.3778 -88.9689 55° Northeast 379 436 15,100 -1,920 Descending Chicago Center
08:33PM 41.4350 -88.8589 55° Northeast 365 420 13,100 -1,920 Descending Chicago Center
08:34PM 41.4897 -88.7497 56° Northeast 355 409 11,200 -1,020 Descending Chicago Center
08:35PM 41.5494 -88.6136 60° Northeast 354 407 11,000 -120 Descending Chicago Center
08:36PM 41.5956 -88.4967 62° Northeast 356 410 11,000  Level Chicago Center
08:37PM 41.6536 -88.3878 54° Northeast 363 418 11,000 -360 Level Chicago Center
08:38PM 41.7139 -88.2831 52° Northeast 357 411 10,300 -540 Descending Chicago Center
08:39PM 41.7756 -88.1811 51° Northeast 353 406 9,900 -600 Descending Chicago Center
08:40PM 41.8233 -88.0981 52° Northeast 279 321 9,100 -1,140 Descending Chicago Center
08:41PM 41.8706 -88.0133 53° Northeast 281 323 7,600 -1,020 Descending Chicago Center
08:42PM 41.8847 -87.8917 81° East 281 323 7,000 -600 Descending Chicago Center
08:43PM 41.8833 -87.7972 91° East 260 299 6,400 -1,260 Descending Chicago Center
08:44PM 41.8972 -87.7161 77° East 247 284 4,500 -1,680 Descending Chicago Center
08:45PM 41.9567 -87.7239 354° North 239 275 3,000 -1,260 Descending Chicago Center
08:47PM 41.9694 -87.7931 284° West 213 245 2,000 -960 Descending Chicago Center
08:48PM 41.9683 -87.8542 269° West 169 194 1,100 -900 Descending Chicago Center
08:50PM 41.9667 -87.9000 296° West  Level FlightAware Approximate